Time;durP1;ratioP1;P1;durP2;ratioP2;P2;SDS_P1;SDS_P2;PMS_P1;PMS_P2;Temp;Humidity;BMP_temperature;BMP_pressure;BME280_temperature;BME280_humidity;BME280_pressure;Samples;Min_cycle;Max_cycle;Signal;HPM_P1;HPM_P2
2022/10/26 00:01:13;;;;;;;7.73;2.13;;;15.20;99.90;;;;;;5136002;28;20237;-82
2022/10/26 00:03:47;;;;;;;5.37;1.90;;;15.20;99.90;;;;;;5137478;27;20212;-80
2022/10/26 00:06:23;;;;;;;6.65;2.47;;;15.10;99.90;;;;;;5136648;28;20461;-80
2022/10/26 00:09:06;;;;;;;4.90;1.97;;;15.10;99.90;;;;;;5137295;28;20260;-80
2022/10/26 00:12:05;;;;;;;6.20;1.63;;;15.10;99.90;;;;;;5136639;28;20194;-81
2022/10/26 00:14:38;;;;;;;7.97;1.97;;;15.00;99.90;;;;;;5136346;28;20194;-80
2022/10/26 00:17:13;;;;;;;10.33;2.33;;;15.10;99.90;;;;;;5129741;28;20208;-81
2022/10/26 00:19:45;;;;;;;7.10;2.07;;;15.10;99.90;;;;;;5138069;28;20207;-81
2022/10/26 00:22:20;;;;;;;6.57;1.67;;;15.00;99.90;;;;;;5137615;28;20251;-80
2022/10/26 00:24:51;;;;;;;8.43;1.80;;;15.10;99.90;;;;;;5136807;27;20203;-81
2022/10/26 00:27:26;;;;;;;5.43;2.30;;;15.10;99.90;;;;;;5137873;28;20224;-81
2022/10/26 00:30:08;;;;;;;4.60;2.40;;;15.10;99.90;;;;;;5138934;28;20215;-80
2022/10/26 00:32:38;;;;;;;5.10;1.70;;;15.10;99.90;;;;;;5133710;27;20264;-80
2022/10/26 00:35:10;;;;;;;6.40;2.30;;;15.20;99.90;;;;;;5128430;28;20718;-81
2022/10/26 00:37:40;;;;;;;8.82;2.28;;;15.20;99.90;;;;;;5129361;28;20475;-80
2022/10/26 00:40:11;;;;;;;4.33;2.03;;;15.20;99.90;;;;;;5145442;27;20268;-80
2022/10/26 00:42:45;;;;;;;4.27;2.03;;;15.10;99.90;;;;;;5126734;27;20698;-81
2022/10/26 00:45:34;;;;;;;8.60;2.03;;;15.20;99.90;;;;;;5123941;28;20216;-79
2022/10/26 00:48:07;;;;;;;3.90;1.80;;;15.30;99.90;;;;;;5120038;27;20218;-81
2022/10/26 00:50:39;;;;;;;6.50;1.73;;;15.20;99.90;;;;;;5127184;28;20209;-80
2022/10/26 00:53:09;;;;;;;8.27;1.87;;;15.10;99.90;;;;;;5125619;28;20305;-80
2022/10/26 00:55:45;;;;;;;5.17;1.97;;;15.10;99.90;;;;;;5131510;27;20269;-81
2022/10/26 00:58:19;;;;;;;5.30;2.07;;;15.10;99.90;;;;;;5148140;27;20245;-81
2022/10/26 01:00:52;;;;;;;5.67;1.50;;;15.10;99.90;;;;;;5114651;28;20271;-81
2022/10/26 01:03:28;;;;;;;6.10;1.63;;;15.10;99.90;;;;;;5130669;28;20290;-81
2022/10/26 01:06:13;;;;;;;4.70;1.50;;;15.00;99.90;;;;;;5113812;28;20223;-79
2022/10/26 01:08:41;;;;;;;4.90;1.70;;;15.00;99.90;;;;;;5113616;28;20249;-80
2022/10/26 01:11:10;;;;;;;4.60;1.70;;;15.00;99.90;;;;;;5127861;28;20649;-80
2022/10/26 01:13:42;;;;;;;5.23;1.73;;;15.00;99.90;;;;;;5127845;28;20725;-79
2022/10/26 01:16:30;;;;;;;5.27;1.80;;;15.10;99.90;;;;;;5129986;28;20267;-80
2022/10/26 01:19:15;;;;;;;6.70;1.80;;;15.30;99.90;;;;;;5121933;28;20213;-81
2022/10/26 01:21:57;;;;;;;6.33;2.20;;;15.10;99.90;;;;;;5125683;28;20213;-81
2022/10/26 01:24:55;;;;;;;4.30;1.90;;;15.10;99.90;;;;;;5135635;28;20275;-80
2022/10/26 01:27:28;;;;;;;6.37;1.93;;;15.20;99.90;;;;;;5126737;28;20290;-81
2022/10/26 01:30:43;;;;;;;5.33;2.40;;;15.10;99.90;;;;;;5107672;28;20313;-81
2022/10/26 01:33:27;;;;;;;5.37;1.77;;;15.00;99.90;;;;;;5126557;28;20198;-80
2022/10/26 01:36:03;;;;;;;5.83;2.00;;;15.10;99.90;;;;;;5127074;28;20203;-80
2022/10/26 01:38:49;;;;;;;9.93;2.00;;;15.10;99.90;;;;;;5128449;28;20202;-80
2022/10/26 01:41:26;;;;;;;6.80;1.73;;;15.10;99.90;;;;;;5129277;28;20201;-80
2022/10/26 01:43:57;;;;;;;2.23;1.80;;;15.10;99.90;;;;;;5114067;28;20229;-80
2022/10/26 01:46:37;;;;;;;6.57;1.93;;;15.20;99.90;;;;;;5128225;28;20259;-80
2022/10/26 01:49:20;;;;;;;6.83;1.67;;;15.20;99.90;;;;;;5122142;28;20227;-80
2022/10/26 01:51:53;;;;;;;8.47;1.80;;;15.20;99.90;;;;;;5114959;28;20249;-80
2022/10/26 01:54:21;;;;;;;8.63;2.20;;;15.20;99.90;;;;;;5131105;27;20218;-80
2022/10/26 01:56:52;;;;;;;6.10;1.87;;;15.20;99.90;;;;;;5127688;28;20237;-82
2022/10/26 01:59:37;;;;;;;5.67;2.00;;;15.30;99.90;;;;;;5128041;27;20211;-81
2022/10/26 02:02:49;;;;;;;6.37;2.17;;;15.20;99.90;;;;;;5132298;27;20247;-80
2022/10/26 02:05:32;;;;;;;5.43;1.60;;;15.10;99.90;;;;;;5128088;28;20272;-80
2022/10/26 02:08:17;;;;;;;5.70;2.00;;;15.20;99.90;;;;;;5141841;28;20229;-80
2022/10/26 02:10:58;;;;;;;7.07;2.00;;;15.20;99.90;;;;;;5141294;28;20249;-80
2022/10/26 02:13:38;;;;;;;5.78;2.40;;;15.30;99.90;;;;;;5140555;28;20423;-81
2022/10/26 02:16:19;;;;;;;6.57;2.27;;;15.60;99.90;;;;;;5139451;28;20222;-80
2022/10/26 02:18:59;;;;;;;8.53;1.73;;;15.50;99.90;;;;;;5141925;28;20188;-80
2022/10/26 02:21:58;;;;;;;9.47;1.70;;;15.50;99.90;;;;;;5141215;28;20229;-80
2022/10/26 02:24:51;;;;;;;7.27;1.83;;;15.50;99.90;;;;;;5119712;28;20221;-81
2022/10/26 02:27:26;;;;;;;6.33;2.00;;;15.40;99.90;;;;;;5120012;27;20228;-81
2022/10/26 02:30:02;;;;;;;6.20;1.87;;;15.40;99.90;;;;;;5131380;28;20252;-82
2022/10/26 02:32:35;;;;;;;5.00;2.23;;;15.40;99.90;;;;;;5119755;28;20613;-79
2022/10/26 02:35:21;;;;;;;4.30;1.90;;;15.30;99.90;;;;;;5127751;28;20747;-80
2022/10/26 02:38:01;;;;;;;5.73;2.03;;;15.30;99.90;;;;;;5118724;27;20249;-80
2022/10/26 02:40:36;;;;;;;5.53;2.03;;;15.30;99.90;;;;;;5113313;28;20212;-80
2022/10/26 02:43:13;;;;;;;6.03;2.10;;;15.30;99.90;;;;;;5121058;28;20216;-81
2022/10/26 02:45:47;;;;;;;7.67;2.00;;;15.30;99.90;;;;;;5113746;27;20215;-79
2022/10/26 02:48:15;;;;;;;7.73;2.13;;;15.40;99.90;;;;;;5118469;28;20215;-80
2022/10/26 02:50:58;;;;;;;5.37;1.90;;;15.40;99.90;;;;;;5128269;28;20210;-80
2022/10/26 02:53:33;;;;;;;4.93;1.90;;;15.40;99.90;;;;;;5121630;28;20232;-81
2022/10/26 02:56:06;;;;;;;2.80;1.77;;;15.40;99.90;;;;;;5124029;28;20196;-80
2022/10/26 02:58:57;;;;;;;3.40;2.07;;;15.40;99.90;;;;;;5120137;27;20608;-81
2022/10/26 03:01:32;;;;;;;5.97;2.23;;;15.30;99.90;;;;;;5128351;28;20201;-81
2022/10/26 03:04:07;;;;;;;8.93;2.23;;;15.40;99.90;;;;;;5133158;28;20229;-81
2022/10/26 03:06:41;;;;;;;6.10;2.30;;;15.50;99.90;;;;;;5125846;28;20304;-80
2022/10/26 03:09:09;;;;;;;7.93;2.20;;;15.50;99.90;;;;;;5131366;28;20247;-79
2022/10/26 03:11:38;;;;;;;5.43;2.43;;;15.60;99.90;;;;;;5131642;27;20287;-81
2022/10/26 03:14:11;;;;;;;4.80;1.80;;;15.70;99.90;;;;;;5115607;28;20650;-80
2022/10/26 03:16:37;;;;;;;4.03;2.07;;;15.70;99.90;;;;;;5118937;27;20298;-82
2022/10/26 03:19:16;;;;;;;3.63;1.60;;;15.60;99.90;;;;;;5120874;27;20243;-81
2022/10/26 03:21:44;;;;;;;4.37;2.03;;;15.70;99.90;;;;;;5124844;28;20291;-81
2022/10/26 03:24:24;;;;;;;4.50;2.20;;;15.70;99.90;;;;;;5107053;28;20566;-82
2022/10/26 03:26:52;;;;;;;4.53;2.07;;;15.60;99.90;;;;;;5120370;27;20279;-82
2022/10/26 03:29:19;;;;;;;11.13;2.37;;;15.60;99.90;;;;;;5115243;28;20251;-82
2022/10/26 03:32:05;;;;;;;5.60;2.83;;;15.60;99.90;;;;;;5127764;28;20210;-80
2022/10/26 03:34:34;;;;;;;9.23;2.77;;;15.70;99.90;;;;;;5124538;28;20232;-81
2022/10/26 03:37:16;;;;;;;7.53;2.10;;;15.70;99.90;;;;;;5135006;28;20211;-81
2022/10/26 03:40:17;;;;;;;5.30;2.40;;;15.70;99.90;;;;;;5137714;28;20191;-80
2022/10/26 03:48:55;;;;;;;6.00;2.40;;;15.40;99.90;;;;;;5154379;27;20221;-80
2022/10/26 03:51:33;;;;;;;5.00;2.40;;;15.30;99.90;;;;;;5142325;27;20211;-80
2022/10/26 03:54:29;;;;;;;5.97;2.43;;;15.40;99.90;;;;;;5136957;27;20273;-80
2022/10/26 03:57:11;;;;;;;4.73;1.80;;;15.30;99.90;;;;;;5127133;28;20198;-80
2022/10/26 03:59:44;;;;;;;5.83;2.30;;;15.20;99.90;;;;;;5136252;28;20229;-80
2022/10/26 04:02:13;;;;;;;6.13;2.00;;;15.20;99.90;;;;;;5128252;27;20314;-80
2022/10/26 04:04:46;;;;;;;11.33;2.27;;;15.00;99.90;;;;;;5131531;28;20219;-82
2022/10/26 04:07:29;;;;;;;4.07;1.90;;;15.00;99.90;;;;;;5141855;27;20302;-80
2022/10/26 04:09:56;;;;;;;8.20;1.93;;;15.00;99.90;;;;;;5130279;27;20225;-78
2022/10/26 04:12:24;;;;;;;4.17;1.83;;;15.10;99.90;;;;;;5117194;28;20725;-79
2022/10/26 04:14:56;;;;;;;3.93;1.90;;;15.10;99.90;;;;;;5109255;28;20720;-79
2022/10/26 04:17:24;;;;;;;5.47;2.00;;;15.10;99.90;;;;;;5116564;27;20603;-79
2022/10/26 04:20:01;;;;;;;4.47;2.10;;;15.30;99.90;;;;;;5122912;28;20425;-79
2022/10/26 04:22:28;;;;;;;6.70;1.80;;;15.30;99.90;;;;;;5114296;27;20219;-80
2022/10/26 04:24:57;;;;;;;3.73;2.07;;;15.40;99.90;;;;;;5120950;28;20204;-80
2022/10/26 04:27:29;;;;;;;5.20;1.93;;;15.50;99.90;;;;;;5119822;27;20563;-77
2022/10/26 04:29:59;;;;;;;2.83;1.73;;;15.50;99.90;;;;;;5119738;27;20223;-74
2022/10/26 04:32:26;;;;;;;7.33;2.27;;;15.60;99.90;;;;;;5115726;28;20207;-78
2022/10/26 04:34:54;;;;;;;4.97;1.93;;;15.60;99.90;;;;;;5118514;28;20201;-80
2022/10/26 04:37:21;;;;;;;7.23;1.90;;;15.80;99.90;;;;;;5118882;28;20210;-78
2022/10/26 04:39:48;;;;;;;3.13;1.90;;;15.70;99.90;;;;;;5117149;28;20208;-77
2022/10/26 04:42:14;;;;;;;4.60;2.17;;;15.70;99.90;;;;;;5115886;28;20208;-79
2022/10/26 04:44:42;;;;;;;6.00;1.73;;;15.60;99.90;;;;;;5115516;28;20201;-79
2022/10/26 04:47:09;;;;;;;4.67;2.17;;;15.60;99.90;;;;;;5115664;28;20193;-79
2022/10/26 04:49:38;;;;;;;3.57;1.60;;;15.60;99.90;;;;;;5117427;28;20251;-78
2022/10/26 04:52:05;;;;;;;5.05;2.25;;;15.60;99.90;;;;;;5116071;28;20427;-79
2022/10/26 04:54:33;;;;;;;5.33;1.77;;;15.90;99.90;;;;;;5117549;28;20192;-76
2022/10/26 04:57:00;;;;;;;2.87;2.13;;;15.90;99.90;;;;;;5123139;28;20219;-79
2022/10/26 04:59:27;;;;;;;5.53;1.63;;;15.90;99.90;;;;;;5123141;28;20211;-77
2022/10/26 05:01:55;;;;;;;6.07;2.00;;;15.80;99.90;;;;;;5117357;27;20243;-75
2022/10/26 05:04:22;;;;;;;2.97;1.60;;;15.80;99.90;;;;;;5117105;28;20567;-75
2022/10/26 05:06:48;;;;;;;8.33;2.50;;;15.90;99.90;;;;;;5116743;28;20196;-78
2022/10/26 05:09:15;;;;;;;9.10;2.17;;;15.90;99.90;;;;;;5116255;28;20223;-76
2022/10/26 05:11:42;;;;;;;7.03;1.83;;;15.90;99.90;;;;;;5114309;28;20224;-78
2022/10/26 05:14:09;;;;;;;4.30;1.63;;;15.80;99.90;;;;;;5115578;28;20581;-76
2022/10/26 05:16:35;;;;;;;3.80;1.70;;;15.80;99.90;;;;;;5114545;28;20212;-77
2022/10/26 05:19:04;;;;;;;2.20;1.40;;;15.80;99.90;;;;;;5114777;28;20568;-77
2022/10/26 05:21:30;;;;;;;4.57;1.77;;;15.80;99.90;;;;;;5115680;28;20208;-75
2022/10/26 05:23:57;;;;;;;3.97;1.70;;;15.80;99.90;;;;;;5136205;28;20208;-75
2022/10/26 05:26:25;;;;;;;3.33;1.77;;;15.90;99.90;;;;;;5136023;28;20184;-75
2022/10/26 05:28:52;;;;;;;4.53;1.50;;;15.90;99.90;;;;;;5135889;27;20243;-75
2022/10/26 05:31:19;;;;;;;3.70;1.50;;;15.90;99.90;;;;;;5140322;27;20249;-76
2022/10/26 05:33:49;;;;;;;5.53;1.77;;;15.90;99.90;;;;;;5141086;27;20678;-75
2022/10/26 05:36:17;;;;;;;3.83;1.60;;;15.70;99.90;;;;;;5140394;27;20192;-77
2022/10/26 05:38:44;;;;;;;4.73;1.60;;;15.70;99.90;;;;;;5139671;27;20200;-76
2022/10/26 05:41:11;;;;;;;1.97;1.30;;;15.70;99.90;;;;;;5140335;27;20203;-77
2022/10/26 05:43:40;;;;;;;3.73;1.67;;;15.70;99.90;;;;;;5142880;27;20206;-76
2022/10/26 05:46:10;;;;;;;2.03;1.33;;;15.80;99.90;;;;;;5147851;27;20271;-77
2022/10/26 05:48:37;;;;;;;15.83;2.57;;;15.80;99.90;;;;;;5130751;27;20199;-76
2022/10/26 05:51:06;;;;;;;3.33;1.70;;;15.80;99.90;;;;;;5120094;28;20216;-76
2022/10/26 05:53:42;;;;;;;5.33;1.63;;;15.80;99.90;;;;;;5129453;28;20201;-77
2022/10/26 05:56:19;;;;;;;4.77;1.53;;;15.80;99.90;;;;;;5121510;28;20211;-77
2022/10/26 05:58:53;;;;;;;4.73;2.03;;;15.80;99.90;;;;;;5124917;28;20265;-75
2022/10/26 06:01:32;;;;;;;5.63;2.00;;;15.70;99.90;;;;;;5134209;27;20238;-76
2022/10/26 06:04:10;;;;;;;4.77;1.80;;;15.60;99.90;;;;;;5146843;27;20198;-75
2022/10/26 06:06:41;;;;;;;4.80;2.23;;;15.60;99.90;;;;;;5140504;27;20204;-77
2022/10/26 06:09:15;;;;;;;4.00;1.93;;;15.70;99.90;;;;;;5140101;27;20214;-76
2022/10/26 06:11:44;;;;;;;6.23;1.63;;;15.70;99.90;;;;;;5142006;27;20230;-78
2022/10/26 06:14:11;;;;;;;4.93;1.63;;;15.70;99.90;;;;;;5144621;27;20211;-75
2022/10/26 06:16:50;;;;;;;3.90;1.80;;;15.80;99.90;;;;;;5140297;27;20622;-76
2022/10/26 06:19:29;;;;;;;4.67;1.60;;;15.80;99.90;;;;;;5140211;27;20210;-76
2022/10/26 06:22:07;;;;;;;4.47;1.87;;;15.80;99.90;;;;;;5139692;27;20210;-75
2022/10/26 06:24:44;;;;;;;3.77;2.30;;;15.80;99.90;;;;;;5140597;27;20188;-77
2022/10/26 06:27:22;;;;;;;4.82;2.22;;;15.70;99.90;;;;;;5139419;27;20423;-77
2022/10/26 06:29:58;;;;;;;4.80;1.87;;;15.70;99.90;;;;;;5142122;27;20204;-77
2022/10/26 06:32:25;;;;;;;4.47;2.10;;;15.60;99.90;;;;;;5140317;27;20200;-76
2022/10/26 06:34:58;;;;;;;4.73;2.43;;;15.60;99.90;;;;;;5141557;27;20187;-75
2022/10/26 06:37:28;;;;;;;3.17;1.83;;;15.70;99.90;;;;;;5140077;27;20200;-76
2022/10/26 06:39:57;;;;;;;5.00;2.23;;;15.60;99.90;;;;;;5139396;27;20207;-77
2022/10/26 06:42:25;;;;;;;7.07;1.97;;;15.50;99.90;;;;;;5139607;27;20284;-75
2022/10/26 06:44:52;;;;;;;4.13;2.10;;;15.40;99.90;;;;;;5138974;27;20206;-77
2022/10/26 06:47:25;;;;;;;9.57;1.80;;;15.50;99.90;;;;;;5139361;27;20213;-75
2022/10/26 06:50:02;;;;;;;3.10;2.07;;;15.40;99.90;;;;;;5139474;27;20682;-78
2022/10/26 06:52:35;;;;;;;6.77;2.17;;;15.40;99.90;;;;;;5140712;27;20187;-75
2022/10/26 06:55:04;;;;;;;3.67;2.37;;;15.40;99.90;;;;;;5136475;27;20196;-75
2022/10/26 06:57:37;;;;;;;3.00;1.88;;;15.50;99.90;;;;;;5130044;27;20423;-76
2022/10/26 07:00:13;;;;;;;6.40;2.20;;;15.50;99.90;;;;;;5138772;27;20203;-77
2022/10/26 07:02:41;;;;;;;3.07;1.70;;;15.50;99.90;;;;;;5139162;27;20579;-76
2022/10/26 07:05:12;;;;;;;8.20;2.10;;;15.50;99.90;;;;;;5138699;27;20287;-76
2022/10/26 07:07:42;;;;;;;7.07;2.40;;;15.50;99.90;;;;;;5139913;27;20247;-76
2022/10/26 07:10:14;;;;;;;6.07;2.03;;;15.50;99.90;;;;;;5140500;27;20208;-75
2022/10/26 07:12:42;;;;;;;4.47;2.00;;;15.40;99.90;;;;;;5138669;27;20571;-76
2022/10/26 07:15:09;;;;;;;3.53;2.00;;;15.50;99.90;;;;;;5140907;27;20205;-76
2022/10/26 07:17:47;;;;;;;8.10;2.20;;;15.40;99.90;;;;;;5141632;27;20184;-77
2022/10/26 07:20:17;;;;;;;4.77;2.00;;;15.50;99.90;;;;;;5140128;27;20211;-76
2022/10/26 07:22:45;;;;;;;7.17;2.00;;;15.50;99.90;;;;;;5138926;27;20272;-77
2022/10/26 07:25:14;;;;;;;4.77;2.23;;;15.50;99.90;;;;;;5139777;27;20206;-77
2022/10/26 07:27:41;;;;;;;4.20;2.10;;;15.50;99.90;;;;;;5138301;27;20198;-76
2022/10/26 07:30:09;;;;;;;6.28;2.30;;;15.50;99.90;;;;;;5136800;27;20509;-77
2022/10/26 07:32:36;;;;;;;6.57;2.13;;;15.60;99.90;;;;;;5138100;27;20184;-78
2022/10/26 07:35:03;;;;;;;6.13;2.50;;;15.70;99.90;;;;;;5138044;27;20206;-78
2022/10/26 07:37:30;;;;;;;3.90;2.07;;;15.70;99.90;;;;;;5138405;27;20278;-77
2022/10/26 07:39:57;;;;;;;3.00;2.00;;;15.80;99.90;;;;;;5137014;27;20199;-78
2022/10/26 07:42:25;;;;;;;6.27;2.27;;;15.80;99.90;;;;;;5145049;27;20657;-77
2022/10/26 07:44:52;;;;;;;3.87;2.20;;;15.80;99.90;;;;;;5145111;27;20194;-77
2022/10/26 07:47:18;;;;;;;5.60;2.30;;;15.90;99.90;;;;;;5144501;27;20196;-77
2022/10/26 07:49:45;;;;;;;8.20;2.13;;;16.00;99.90;;;;;;5136727;27;20208;-80
2022/10/26 07:52:12;;;;;;;5.63;2.43;;;16.00;99.90;;;;;;5120256;28;20267;-79
2022/10/26 07:54:41;;;;;;;4.67;1.93;;;16.10;99.90;;;;;;5121382;28;20203;-79
2022/10/26 07:57:09;;;;;;;4.50;2.10;;;16.20;99.90;;;;;;5121373;28;20331;-79
2022/10/26 07:59:38;;;;;;;4.80;2.50;;;16.20;99.90;;;;;;5118105;28;20210;-77
2022/10/26 08:02:06;;;;;;;5.40;2.50;;;16.20;99.90;;;;;;5120943;28;20227;-78
2022/10/26 08:04:33;;;;;;;4.67;2.00;;;16.30;99.90;;;;;;5119511;28;20189;-77
2022/10/26 08:07:03;;;;;;;7.67;2.47;;;16.20;99.90;;;;;;5122946;28;20204;-79
2022/10/26 08:09:30;;;;;;;2.70;1.97;;;16.20;99.90;;;;;;5119141;28;20211;-77
2022/10/26 08:11:57;;;;;;;6.13;2.10;;;16.20;99.90;;;;;;5119088;28;20234;-78
2022/10/26 08:14:26;;;;;;;9.17;2.40;;;16.30;99.90;;;;;;5117007;28;20204;-79
2022/10/26 08:16:54;;;;;;;9.10;2.77;;;16.40;99.90;;;;;;5115857;28;20200;-78
2022/10/26 08:19:23;;;;;;;5.23;2.30;;;16.40;99.90;;;;;;5118229;28;20202;-78
2022/10/26 08:21:50;;;;;;;6.47;2.70;;;16.50;99.90;;;;;;5117669;28;20193;-79
2022/10/26 08:24:18;;;;;;;7.57;2.57;;;16.60;99.90;;;;;;5118928;28;20296;-78
2022/10/26 08:26:45;;;;;;;4.00;1.90;;;16.60;99.90;;;;;;5118693;28;20219;-79
2022/10/26 08:29:13;;;;;;;8.27;2.20;;;16.70;99.90;;;;;;5125023;27;20192;-78
2022/10/26 08:31:43;;;;;;;5.17;2.27;;;16.80;99.90;;;;;;5123004;27;20598;-79
2022/10/26 08:34:11;;;;;;;5.93;2.35;;;16.90;99.90;;;;;;5131759;27;20418;-78
2022/10/26 08:36:41;;;;;;;5.50;1.90;;;16.90;99.90;;;;;;5131452;27;20653;-78
2022/10/26 08:39:10;;;;;;;5.53;1.77;;;16.90;99.90;;;;;;5131306;27;20201;-78
2022/10/26 08:41:40;;;;;;;5.87;1.80;;;17.00;99.90;;;;;;5139423;27;20218;-81
2022/10/26 08:44:19;;;;;;;5.33;2.00;;;17.00;99.90;;;;;;5126412;27;20198;-80
2022/10/26 08:46:50;;;;;;;4.17;2.20;;;17.10;99.90;;;;;;5137968;27;20193;-80
2022/10/26 08:49:24;;;;;;;8.27;2.30;;;17.00;99.90;;;;;;5143884;27;20214;-80
2022/10/26 08:51:57;;;;;;;7.60;2.60;;;17.00;99.90;;;;;;5144545;27;20228;-80
2022/10/26 08:54:39;;;;;;;4.40;2.27;;;17.00;99.90;;;;;;5144619;27;20629;-80
2022/10/26 08:57:19;;;;;;;6.23;2.33;;;17.00;99.90;;;;;;5144865;27;20629;-80
2022/10/26 08:59:55;;;;;;;4.07;2.10;;;17.10;99.90;;;;;;5142850;27;20625;-80
2022/10/26 09:02:24;;;;;;;5.33;1.90;;;17.10;99.90;;;;;;5145990;27;20295;-80
2022/10/26 09:13:04;;;;;;;4.53;2.07;;;17.30;99.90;;;;;;5543866;22;20248;-80
2022/10/26 09:15:54;;;;;;;3.87;1.90;;;17.40;99.90;;;;;;5068449;28;20212;-79
2022/10/26 09:18:35;;;;;;;4.47;1.90;;;17.50;99.90;;;;;;5063675;28;20209;-79
2022/10/26 09:21:20;;;;;;;5.90;2.03;;;17.60;99.90;;;;;;5036980;28;20256;-78
2022/10/26 09:24:00;;;;;;;5.37;2.30;;;17.60;99.90;;;;;;5038500;28;20199;-78
2022/10/26 09:26:35;;;;;;;7.03;2.20;;;17.70;99.90;;;;;;5035270;28;20207;-81
2022/10/26 09:29:10;;;;;;;3.60;2.17;;;17.80;99.90;;;;;;5035517;28;20605;-78
2022/10/26 09:31:40;;;;;;;5.77;2.03;;;17.80;99.90;;;;;;5051968;28;20703;-79
2022/10/26 09:34:12;;;;;;;4.87;2.20;;;17.80;99.90;;;;;;5064964;28;20212;-79
2022/10/26 09:36:41;;;;;;;5.32;2.20;;;17.90;99.90;;;;;;5064957;28;20515;-79
2022/10/26 09:39:15;;;;;;;4.73;1.97;;;17.90;99.90;;;;;;5059863;28;20247;-79
2022/10/26 09:41:46;;;;;;;3.73;1.77;;;18.00;99.90;;;;;;5060317;28;20284;-79
2022/10/26 09:44:24;;;;;;;5.90;2.00;;;18.10;99.90;;;;;;5055272;28;20202;-78
2022/10/26 09:46:58;;;;;;;3.53;1.87;;;18.20;99.90;;;;;;5055814;28;20202;-79
2022/10/26 09:49:33;;;;;;;3.13;1.70;;;18.20;99.90;;;;;;5054707;28;20207;-79
2022/10/26 09:51:59;;;;;;;8.80;1.83;;;18.20;99.90;;;;;;5053584;28;20234;-79
2022/10/26 09:54:26;;;;;;;4.87;1.70;;;18.30;99.90;;;;;;5053773;28;20206;-78
2022/10/26 09:56:56;;;;;;;8.20;2.10;;;18.30;99.90;;;;;;5054858;28;20215;-79
2022/10/26 09:59:26;;;;;;;7.10;2.00;;;18.40;99.90;;;;;;5054759;28;20199;-80
2022/10/26 10:01:52;;;;;;;7.37;2.37;;;18.40;99.90;;;;;;5053304;28;20302;-81
2022/10/26 10:04:21;;;;;;;7.40;1.63;;;18.40;99.90;;;;;;5047506;28;20203;-79
2022/10/26 10:06:49;;;;;;;5.17;1.70;;;18.50;99.90;;;;;;5052284;28;20646;-80
2022/10/26 10:09:18;;;;;;;8.10;2.20;;;18.50;99.90;;;;;;5052892;28;20437;-78
2022/10/26 10:11:53;;;;;;;4.63;1.90;;;18.60;99.90;;;;;;5053521;28;20228;-78
2022/10/26 10:14:21;;;;;;;3.80;1.70;;;18.60;99.90;;;;;;5053071;28;20236;-78
2022/10/26 10:16:54;;;;;;;4.20;1.73;;;18.60;99.90;;;;;;5057457;28;20203;-79
2022/10/26 10:19:23;;;;;;;2.10;1.53;;;18.60;99.90;;;;;;5056025;28;20569;-78
2022/10/26 10:21:53;;;;;;;4.53;1.77;;;18.70;99.90;;;;;;5055792;28;20256;-77
2022/10/26 10:24:24;;;;;;;3.67;1.87;;;18.70;99.90;;;;;;5055758;28;20210;-80
2022/10/26 10:26:58;;;;;;;3.27;1.63;;;18.70;99.90;;;;;;5056967;28;20207;-78
2022/10/26 10:29:26;;;;;;;4.87;1.80;;;18.70;99.90;;;;;;5056925;28;20213;-78
2022/10/26 10:31:58;;;;;;;4.27;1.60;;;18.70;99.90;;;;;;5058053;28;20234;-83
2022/10/26 10:34:24;;;;;;;5.57;1.90;;;18.70;99.90;;;;;;5056527;28;20666;-83
2022/10/26 10:36:52;;;;;;;5.13;1.70;;;18.80;99.90;;;;;;5056517;28;20210;-81
2022/10/26 10:39:36;;;;;;;5.30;2.00;;;18.90;99.90;;;;;;5058298;28;20569;-83
2022/10/26 10:42:04;;;;;;;3.43;1.90;;;18.70;99.90;;;;;;5058035;28;20673;-83
2022/10/26 10:44:33;;;;;;;6.23;1.90;;;18.80;99.90;;;;;;5056240;28;20203;-84
2022/10/26 10:47:03;;;;;;;2.83;1.60;;;18.90;99.90;;;;;;5055628;28;20210;-85
2022/10/26 10:49:30;;;;;;;4.20;2.03;;;19.00;99.90;;;;;;5055340;28;20194;-79
2022/10/26 10:51:57;;;;;;;3.53;1.57;;;19.20;99.90;;;;;;5049917;28;20234;-88
2022/10/26 10:54:29;;;;;;;6.00;2.03;;;19.20;99.90;;;;;;5035330;28;20207;-79
2022/10/26 10:57:03;;;;;;;5.57;2.43;;;19.30;99.90;;;;;;5033872;28;20226;-78
2022/10/26 10:59:52;;;;;;;2.90;1.70;;;19.10;99.90;;;;;;5035493;28;20207;-79
2022/10/26 11:02:51;;;;;;;4.67;1.77;;;19.20;99.90;;;;;;5034399;28;20567;-77
2022/10/26 11:05:38;;;;;;;6.50;1.80;;;19.10;99.90;;;;;;5017757;28;20218;-78
2022/10/26 11:08:09;;;;;;;3.90;1.83;;;19.10;99.90;;;;;;5034854;28;20204;-79
2022/10/26 11:10:39;;;;;;;9.30;1.83;;;19.00;99.90;;;;;;5034809;28;20237;-78
2022/10/26 11:13:14;;;;;;;5.03;1.80;;;19.00;99.90;;;;;;5034368;28;20215;-77
2022/10/26 11:15:44;;;;;;;5.00;1.80;;;19.00;99.90;;;;;;5034845;28;20654;-78
2022/10/26 11:18:16;;;;;;;5.27;1.63;;;19.10;99.90;;;;;;5034242;28;20211;-78
2022/10/26 11:20:50;;;;;;;6.10;1.83;;;19.20;99.90;;;;;;5034842;28;20207;-78
2022/10/26 11:23:22;;;;;;;4.47;1.70;;;19.20;99.90;;;;;;5035463;28;20573;-80
2022/10/26 11:25:57;;;;;;;6.63;1.47;;;19.20;99.90;;;;;;5039650;28;20218;-79
2022/10/26 11:28:35;;;;;;;6.43;1.47;;;19.20;99.90;;;;;;5034364;28;20215;-78
2022/10/26 11:31:07;;;;;;;7.63;1.80;;;19.30;99.90;;;;;;5035279;28;20207;-78
2022/10/26 11:33:40;;;;;;;4.57;1.60;;;19.20;99.90;;;;;;5035328;28;21997;-80
2022/10/26 11:36:09;;;;;;;5.80;1.47;;;19.20;99.90;;;;;;5035616;28;20674;-79
2022/10/26 11:38:44;;;;;;;7.43;1.80;;;19.10;99.90;;;;;;5035087;28;20207;-79
2022/10/26 11:41:18;;;;;;;3.40;1.70;;;19.20;99.90;;;;;;5034452;28;20202;-80
2022/10/26 11:43:46;;;;;;;5.20;1.83;;;19.20;99.90;;;;;;5034520;28;20207;-79
2022/10/26 11:46:17;;;;;;;6.83;1.90;;;19.20;99.90;;;;;;5034739;28;20215;-78
2022/10/26 11:48:51;;;;;;;9.30;1.73;;;19.40;99.90;;;;;;5033878;28;20203;-78
2022/10/26 11:51:23;;;;;;;7.37;1.90;;;19.40;99.90;;;;;;5034350;28;20219;-78
2022/10/26 11:53:51;;;;;;;4.47;1.80;;;19.40;99.90;;;;;;5033887;28;20207;-81
2022/10/26 11:56:29;;;;;;;5.63;1.50;;;19.50;99.90;;;;;;5034071;28;20677;-83
2022/10/26 11:58:58;;;;;;;6.63;1.83;;;19.60;99.90;;;;;;5033257;28;20192;-79
2022/10/26 12:01:28;;;;;;;4.40;1.90;;;19.50;99.90;;;;;;5032969;28;20639;-78
2022/10/26 12:03:59;;;;;;;4.43;1.80;;;19.50;99.90;;;;;;5033775;28;20203;-78
2022/10/26 12:06:31;;;;;;;4.87;1.43;;;19.50;99.90;;;;;;5033488;28;20203;-81
2022/10/26 12:09:03;;;;;;;4.73;1.50;;;19.50;99.90;;;;;;5044752;28;20201;-80
2022/10/26 12:11:41;;;;;;;3.77;1.50;;;19.40;99.90;;;;;;5055800;28;20194;-79
2022/10/26 12:14:17;;;;;;;5.43;1.80;;;19.50;99.90;;;;;;5054732;28;20571;-81
2022/10/26 12:16:53;;;;;;;6.68;1.95;;;19.60;99.90;;;;;;5055372;28;20425;-81
2022/10/26 12:19:26;;;;;;;5.77;1.73;;;19.60;99.90;;;;;;5056734;28;20193;-81
2022/10/26 12:21:54;;;;;;;5.30;1.53;;;19.70;99.90;;;;;;5053548;28;20650;-78
2022/10/26 12:24:27;;;;;;;5.43;1.90;;;19.80;99.90;;;;;;5053807;28;20199;-82
2022/10/26 12:26:59;;;;;;;4.00;1.73;;;19.80;99.90;;;;;;5054480;28;20197;-87
2022/10/26 12:29:36;;;;;;;4.77;1.40;;;19.80;99.90;;;;;;5053680;28;20234;-85
2022/10/26 12:32:25;;;;;;;4.13;1.70;;;19.80;99.90;;;;;;5053888;28;20228;-85
2022/10/26 12:35:01;;;;;;;8.73;1.80;;;19.80;99.90;;;;;;5053866;28;20193;-86
2022/10/26 12:37:34;;;;;;;4.23;1.70;;;19.80;99.90;;;;;;5055124;28;20653;-81
2022/10/26 12:40:39;;;;;;;2.77;1.27;;;19.80;99.90;;;;;;5052890;28;20202;-77
2022/10/26 12:43:35;;;;;;;4.33;1.33;;;19.80;99.90;;;;;;5021972;28;20199;-79
2022/10/26 12:46:42;;;;;;;4.93;1.60;;;19.80;99.90;;;;;;5033142;28;20191;-77
2022/10/26 12:49:55;;;;;;;3.00;1.23;;;19.90;99.90;;;;;;5031879;28;20744;-78
2022/10/26 12:52:41;;;;;;;4.27;1.50;;;20.00;99.90;;;;;;5031093;28;20239;-79
2022/10/26 12:55:38;;;;;;;6.43;1.60;;;20.00;99.90;;;;;;5037721;28;20202;-79
2022/10/26 12:58:41;;;;;;;5.57;1.60;;;20.10;99.90;;;;;;5048711;28;20637;-79
2022/10/26 13:01:35;;;;;;;3.97;1.70;;;20.10;99.90;;;;;;5036336;28;20215;-79
2022/10/26 13:04:26;;;;;;;3.27;1.37;;;20.10;99.90;;;;;;5015855;28;20206;-79
2022/10/26 13:07:13;;;;;;;4.57;1.30;;;20.20;99.90;;;;;;4993785;28;20205;-79
2022/10/26 13:09:46;;;;;;;3.37;1.00;;;20.20;99.90;;;;;;5032356;28;20660;-78
2022/10/26 13:12:13;;;;;;;3.73;1.23;;;20.20;99.90;;;;;;5045234;28;20232;-79
2022/10/26 13:14:57;;;;;;;7.33;1.70;;;20.30;99.90;;;;;;5051872;28;20216;-78
2022/10/26 13:17:27;;;;;;;3.03;1.20;;;20.40;99.90;;;;;;5046838;28;20204;-81
2022/10/26 13:19:57;;;;;;;3.00;1.27;;;20.40;99.90;;;;;;5052181;28;20202;-79
2022/10/26 13:22:24;;;;;;;3.80;1.30;;;20.40;99.90;;;;;;5052474;28;20212;-78
2022/10/26 13:24:57;;;;;;;5.20;1.50;;;20.50;99.90;;;;;;5052462;28;20661;-79
2022/10/26 13:27:44;;;;;;;4.90;1.30;;;20.60;99.90;;;;;;5052852;28;20678;-81
2022/10/26 13:30:22;;;;;;;4.40;1.70;;;20.60;99.90;;;;;;5052753;28;20190;-79
2022/10/26 13:32:52;;;;;;;3.27;1.13;;;20.70;99.90;;;;;;5052904;28;20230;-80
2022/10/26 13:35:21;;;;;;;3.97;1.57;;;20.70;99.90;;;;;;5052604;28;20635;-86